createdAt,value
2023-04-13T00:00:26.353Z,1.53
2023-04-13T00:02:56.429Z,1.50
2023-04-13T00:05:23.977Z,1.77
2023-04-13T00:07:51.314Z,1.67
2023-04-13T00:10:21.607Z,1.07
2023-04-13T00:12:49.437Z,1.50
2023-04-13T00:15:18.953Z,1.30
2023-04-13T00:17:47.444Z,1.43
2023-04-13T00:20:15.021Z,1.40
2023-04-13T00:22:46.634Z,1.43
2023-04-13T00:25:14.679Z,1.90
2023-04-13T00:27:43.168Z,1.60
2023-04-13T00:30:12.200Z,1.83
2023-04-13T00:32:40.493Z,1.80
2023-04-13T00:35:08.272Z,1.20
2023-04-13T00:37:35.763Z,1.53
2023-04-13T00:40:05.134Z,1.40
2023-04-13T00:42:32.497Z,1.40
2023-04-13T00:44:59.786Z,1.33
2023-04-13T00:47:28.611Z,1.20
2023-04-13T00:49:56.566Z,1.43
2023-04-13T00:52:24.084Z,1.53
2023-04-13T00:54:57.349Z,1.80
2023-04-13T00:57:28.296Z,1.33
2023-04-13T00:59:55.886Z,1.50
2023-04-13T01:02:25.031Z,1.30
2023-04-13T01:04:55.731Z,1.90
2023-04-13T01:07:42.313Z,1.50
2023-04-13T01:10:20.327Z,1.43
2023-04-13T01:12:49.159Z,1.80
2023-04-13T01:15:17.579Z,1.80
2023-04-13T01:17:50.834Z,1.57
2023-04-13T01:20:18.510Z,1.50
2023-04-13T01:22:47.415Z,1.67
2023-04-13T01:25:32.692Z,1.70
2023-04-13T01:28:01.737Z,1.67
2023-04-13T01:30:31.361Z,1.60
2023-04-13T01:32:59.522Z,1.60
2023-04-13T01:35:27.404Z,1.40
2023-04-13T01:37:54.752Z,1.50
2023-04-13T01:40:22.816Z,1.40
2023-04-13T01:42:50.648Z,1.50
2023-04-13T01:45:19.550Z,1.23
2023-04-13T01:48:06.769Z,1.30
2023-04-13T01:50:35.618Z,1.43
2023-04-13T01:53:06.142Z,1.43
2023-04-13T01:55:33.525Z,1.90
2023-04-13T01:58:01.757Z,1.30
2023-04-13T02:00:32.166Z,1.20
2023-04-13T02:02:59.675Z,1.60
2023-04-13T02:05:27.251Z,1.30
2023-04-13T02:07:54.781Z,1.60
2023-04-13T02:10:22.078Z,1.60
2023-04-13T02:12:49.438Z,1.17
2023-04-13T02:15:18.032Z,1.30
2023-04-13T02:17:45.436Z,1.40
2023-04-13T02:20:12.863Z,1.43
2023-04-13T02:22:41.372Z,1.60
2023-04-13T02:25:10.864Z,1.70
2023-04-13T02:27:38.906Z,1.37
2023-04-13T02:30:07.608Z,1.87
2023-04-13T02:32:35.908Z,1.50
2023-04-13T02:35:03.761Z,1.40
2023-04-13T02:37:32.341Z,1.70
2023-04-13T02:39:59.812Z,1.63
2023-04-13T02:42:27.839Z,1.57
2023-04-13T02:44:55.198Z,1.20
2023-04-13T02:47:22.595Z,1.40
2023-04-13T02:49:49.976Z,1.20
2023-04-13T02:52:17.403Z,1.20
2023-04-13T02:54:44.847Z,1.27
2023-04-13T02:57:13.282Z,1.50
2023-04-13T02:59:40.644Z,1.40
2023-04-13T03:02:08.548Z,1.67
2023-04-13T03:04:35.900Z,1.50
2023-04-13T03:07:05.001Z,2.50
2023-04-13T03:09:32.403Z,1.40
2023-04-13T03:11:59.701Z,1.53
2023-04-13T03:14:28.697Z,1.70
2023-04-13T03:16:57.956Z,1.67
2023-04-13T03:19:26.821Z,1.40
2023-04-13T03:21:54.188Z,1.50
2023-04-13T03:24:21.479Z,1.40
2023-04-13T03:26:48.846Z,1.43
2023-04-13T03:29:16.316Z,1.50
2023-04-13T03:31:43.683Z,1.60
2023-04-13T03:34:11.184Z,1.80
2023-04-13T03:36:38.490Z,1.20
2023-04-13T03:39:05.836Z,1.50
2023-04-13T03:41:33.227Z,1.63
2023-04-13T03:44:00.669Z,2.03
2023-04-13T03:46:28.223Z,1.70
2023-04-13T03:48:55.942Z,1.33
2023-04-13T03:51:23.270Z,1.70
2023-04-13T03:53:50.683Z,1.80
2023-04-13T03:56:18.048Z,1.80
2023-04-13T03:58:45.418Z,1.73
2023-04-13T04:01:13.697Z,1.57
2023-04-13T04:03:41.148Z,1.70
2023-04-13T04:06:09.313Z,1.60
2023-04-13T04:08:36.696Z,1.90
2023-04-13T04:11:04.376Z,1.70
2023-04-13T04:13:31.729Z,1.83
2023-04-13T04:15:59.570Z,2.10
2023-04-13T04:18:26.946Z,1.87
2023-04-13T04:20:54.323Z,1.87
2023-04-13T04:23:21.686Z,1.57
2023-04-13T04:25:48.997Z,1.83
2023-04-13T04:28:17.864Z,1.80
2023-04-13T04:30:46.847Z,1.60
2023-04-13T04:33:14.314Z,1.50
2023-04-13T04:35:43.316Z,1.80
2023-04-13T04:38:10.611Z,1.40
2023-04-13T04:40:37.930Z,1.37
2023-04-13T04:43:05.446Z,1.60
2023-04-13T04:45:32.912Z,2.00
2023-04-13T04:48:00.420Z,1.50
2023-04-13T04:50:27.820Z,1.50
2023-04-13T04:52:55.252Z,1.90
2023-04-13T04:55:22.627Z,1.50
2023-04-13T04:57:49.992Z,2.13
2023-04-13T05:00:17.594Z,2.03
2023-04-13T05:02:46.177Z,1.70
2023-04-13T05:05:13.676Z,1.83
2023-04-13T05:07:40.976Z,1.73
2023-04-13T05:10:09.261Z,2.33
2023-04-13T05:12:37.449Z,1.90
2023-04-13T05:15:05.529Z,1.80
2023-04-13T05:17:32.921Z,1.70
2023-04-13T05:20:00.449Z,1.87
2023-04-13T05:22:27.876Z,2.13
2023-04-13T05:24:55.855Z,1.70
2023-04-13T05:27:23.221Z,1.43
2023-04-13T05:29:51.287Z,2.43
2023-04-13T05:32:18.608Z,1.93
2023-04-13T05:34:45.953Z,1.90
2023-04-13T05:37:15.187Z,1.93
2023-04-13T05:39:42.500Z,1.70
2023-04-13T05:42:09.852Z,1.83
2023-04-13T05:44:37.146Z,1.83
2023-04-13T05:47:04.524Z,2.63
2023-04-13T05:49:32.682Z,2.17
2023-04-13T05:52:00.955Z,2.17
2023-04-13T05:54:28.575Z,2.00
2023-04-13T05:56:56.832Z,2.17
2023-04-13T05:59:24.221Z,2.80
2023-04-13T06:01:52.289Z,2.20
2023-04-13T06:04:20.577Z,3.30
2023-04-13T06:06:48.141Z,2.00
2023-04-13T06:09:15.531Z,2.07
2023-04-13T06:11:43.133Z,1.97
2023-04-13T06:14:10.509Z,2.10
2023-04-13T06:16:37.891Z,2.77
2023-04-13T06:19:05.266Z,2.20
2023-04-13T06:21:32.603Z,2.00
2023-04-13T06:23:59.920Z,2.50
2023-04-13T06:26:28.656Z,2.87
2023-04-13T06:28:56.469Z,3.27
2023-04-13T06:31:25.468Z,2.50
2023-04-13T06:33:53.488Z,3.30
2023-04-13T06:36:20.854Z,3.07
2023-04-13T06:38:48.168Z,2.50
2023-04-13T06:41:15.613Z,2.40
2023-04-13T06:43:43.063Z,3.10
2023-04-13T06:46:11.559Z,3.20
2023-04-13T06:48:38.958Z,2.90
2023-04-13T06:51:07.177Z,3.20
2023-04-13T06:53:34.530Z,3.20
2023-04-13T06:56:01.993Z,2.40
2023-04-13T06:58:29.592Z,3.50
2023-04-13T07:00:56.939Z,2.80
2023-04-13T07:03:24.434Z,2.90
2023-04-13T07:05:51.938Z,2.60
2023-04-13T07:08:19.453Z,3.10
2023-04-13T07:10:47.413Z,3.00
2023-04-13T07:13:14.707Z,3.00
2023-04-13T07:15:42.497Z,2.97
2023-04-13T07:18:09.841Z,2.63
2023-04-13T07:20:38.108Z,3.20
2023-04-13T07:23:05.392Z,3.00
2023-04-13T07:25:34.386Z,3.10
2023-04-13T07:28:01.725Z,2.73
2023-04-13T07:30:29.623Z,3.10
2023-04-13T07:32:57.026Z,2.70
2023-04-13T07:35:25.138Z,2.70
2023-04-13T07:37:53.307Z,2.60
2023-04-13T07:40:21.377Z,2.23
2023-04-13T07:42:51.638Z,2.60
2023-04-13T07:45:20.381Z,2.40
2023-04-13T07:47:48.256Z,2.13
2023-04-13T07:50:16.329Z,2.37
2023-04-13T07:52:43.624Z,1.60
2023-04-13T07:55:11.367Z,2.23
2023-04-13T07:57:38.727Z,2.30
2023-04-13T08:00:06.424Z,1.77
2023-04-13T08:02:33.932Z,1.70
2023-04-13T08:05:01.685Z,1.87
2023-04-13T08:07:29.690Z,1.70
2023-04-13T08:09:56.976Z,1.60
2023-04-13T08:12:24.343Z,1.90
2023-04-13T08:14:51.729Z,1.43
2023-04-13T08:17:19.124Z,1.70
2023-04-13T08:19:46.459Z,1.60
2023-04-13T08:22:14.389Z,2.07
2023-04-13T08:24:41.683Z,1.50
2023-04-13T08:27:09.935Z,1.40
2023-04-13T08:29:37.481Z,2.07
2023-04-13T08:32:04.961Z,1.70
2023-04-13T08:34:32.634Z,1.80
2023-04-13T08:37:00.032Z,1.80
2023-04-13T08:39:27.508Z,1.60
2023-04-13T08:41:55.636Z,1.83
2023-04-13T08:44:23.378Z,1.70
2023-04-13T08:46:52.552Z,1.90
2023-04-13T08:49:19.949Z,1.60
2023-04-13T08:51:47.768Z,1.50
2023-04-13T08:54:16.243Z,1.50
2023-04-13T08:56:47.294Z,2.13
2023-04-13T08:59:15.852Z,1.83
2023-04-13T09:01:46.376Z,1.70
2023-04-13T09:04:16.612Z,1.70
2023-04-13T09:06:45.789Z,1.87
2023-04-13T09:09:14.665Z,2.00
2023-04-13T09:11:43.114Z,1.70
2023-04-13T09:14:10.739Z,1.57
2023-04-13T09:16:40.726Z,1.77
2023-04-13T09:19:08.575Z,1.30
2023-04-13T09:21:37.627Z,1.57
2023-04-13T09:24:05.898Z,1.40
2023-04-13T09:26:47.115Z,1.30
2023-04-13T09:29:16.524Z,1.20
2023-04-13T09:31:45.726Z,1.20
2023-04-13T09:34:13.450Z,1.20
2023-04-13T09:36:53.490Z,1.00
2023-04-13T09:39:11.661Z,1.50
2023-04-13T09:41:40.262Z,1.10
2023-04-13T09:44:22.039Z,1.40
2023-04-13T09:47:02.325Z,1.53
2023-04-13T09:49:42.746Z,1.30
2023-04-13T09:52:23.580Z,1.57
2023-04-13T09:54:51.802Z,1.23
2023-04-13T09:57:26.069Z,1.53
2023-04-13T09:59:53.893Z,1.40
2023-04-13T10:02:22.353Z,1.27
2023-04-13T10:04:50.008Z,1.40
2023-04-13T10:07:17.972Z,1.70
2023-04-13T10:09:45.407Z,1.30
2023-04-13T10:12:13.516Z,1.40
2023-04-13T10:14:43.294Z,1.40
2023-04-13T10:17:28.685Z,1.43
2023-04-13T10:19:57.772Z,1.63
2023-04-13T10:22:25.346Z,2.00
2023-04-13T10:24:52.792Z,1.37
2023-04-13T10:27:21.253Z,1.30
2023-04-13T10:29:49.742Z,1.60
2023-04-13T10:32:21.343Z,1.30
2023-04-13T10:34:48.737Z,1.40
2023-04-13T10:37:22.866Z,1.60
2023-04-13T10:39:51.770Z,1.40
2023-04-13T10:42:19.146Z,2.47
2023-04-13T10:44:47.272Z,1.40
2023-04-13T10:47:15.924Z,1.27
2023-04-13T10:49:44.313Z,1.40
2023-04-13T10:52:11.719Z,1.40
2023-04-13T10:54:39.533Z,1.30
2023-04-13T10:57:08.713Z,1.20
2023-04-13T11:02:17.420Z,1.60
2023-04-13T11:04:46.829Z,1.30
2023-04-13T11:07:19.149Z,1.40
2023-04-13T11:09:49.017Z,1.30
2023-04-13T11:12:16.637Z,1.40
2023-04-13T11:14:47.159Z,1.60
2023-04-13T11:17:15.595Z,1.53
2023-04-13T11:19:50.370Z,1.40
2023-04-13T11:22:19.054Z,1.47
2023-04-13T11:24:47.513Z,1.53
2023-04-13T11:27:21.445Z,1.23
2023-04-13T11:29:59.401Z,1.47
2023-04-13T11:32:27.799Z,1.50
2023-04-13T11:34:57.921Z,1.40
2023-04-13T11:37:25.764Z,1.20
2023-04-13T11:39:53.273Z,1.20
2023-04-13T11:42:20.554Z,1.57
2023-04-13T11:44:47.915Z,1.10
2023-04-13T11:47:16.821Z,1.10
2023-04-13T11:49:45.825Z,1.50
2023-04-13T11:52:13.264Z,1.50
2023-04-13T11:54:40.699Z,1.80
2023-04-13T11:57:08.066Z,1.37
2023-04-13T11:59:36.149Z,1.00
2023-04-13T12:02:07.800Z,1.10
2023-04-13T12:04:40.713Z,0.77
2023-04-13T12:07:09.975Z,0.80
2023-04-13T12:09:55.976Z,1.00
2023-04-13T12:12:50.571Z,1.00
2023-04-13T12:15:03.560Z,0.80
2023-04-13T12:17:38.436Z,0.80
2023-04-13T12:19:46.679Z,0.80
2023-04-13T12:22:15.091Z,0.70
2023-04-13T12:24:42.968Z,0.93
2023-04-13T12:27:18.468Z,0.90
2023-04-13T12:29:40.234Z,0.83
2023-04-13T12:32:15.304Z,0.70
2023-04-13T12:34:43.348Z,0.80
2023-04-13T12:37:12.014Z,0.70
2023-04-13T12:39:39.365Z,1.10
2023-04-13T12:42:06.864Z,0.80
2023-04-13T12:44:34.657Z,0.80
2023-04-13T12:47:02.554Z,0.80
2023-04-13T12:49:30.265Z,0.70
2023-04-13T12:51:57.723Z,0.70
2023-04-13T12:54:25.148Z,1.00
2023-04-13T12:56:52.546Z,0.83
2023-04-13T12:59:21.952Z,0.90
2023-04-13T13:01:49.884Z,0.80
2023-04-13T13:04:17.666Z,0.73
2023-04-13T13:06:45.540Z,0.70
2023-04-13T13:09:12.907Z,0.70
2023-04-13T13:11:40.806Z,1.10
2023-04-13T13:14:09.844Z,0.90
2023-04-13T13:16:37.107Z,1.03
2023-04-13T13:19:04.870Z,1.13
2023-04-13T13:21:32.520Z,0.80
2023-04-13T13:24:00.051Z,1.17
2023-04-13T13:26:33.030Z,0.83
2023-04-13T13:28:56.383Z,1.13
2023-04-13T13:31:23.794Z,1.20
2023-04-13T13:33:51.196Z,1.10
2023-04-13T13:36:18.690Z,0.90
2023-04-13T13:38:47.173Z,0.97
2023-04-13T13:41:15.421Z,1.20
2023-04-13T13:43:42.821Z,1.23
2023-04-13T13:46:10.930Z,1.13
2023-04-13T13:48:38.259Z,1.20
2023-04-13T13:51:07.541Z,1.00
2023-04-13T13:53:34.658Z,1.10
2023-04-13T13:56:03.481Z,1.03
2023-04-13T13:58:31.105Z,1.03
2023-04-13T14:00:58.803Z,1.03
2023-04-13T14:03:27.035Z,1.20
2023-04-13T14:05:54.478Z,1.40
2023-04-13T14:08:21.848Z,1.40
2023-04-13T14:10:50.015Z,1.20
2023-04-13T14:13:17.366Z,1.67
2023-04-13T14:15:44.785Z,1.30
2023-04-13T14:18:12.212Z,1.30
2023-04-13T14:20:40.198Z,1.50
2023-04-13T14:23:08.671Z,1.33
2023-04-13T14:25:36.404Z,1.60
2023-04-13T14:28:03.822Z,2.20
2023-04-13T14:30:31.249Z,1.87
2023-04-13T14:32:58.700Z,1.63
2023-04-13T14:35:26.066Z,1.27
2023-04-13T14:37:53.383Z,1.70
2023-04-13T14:40:22.283Z,1.40
2023-04-13T14:42:52.368Z,1.20
2023-04-13T14:45:21.430Z,1.10
2023-04-13T14:47:48.957Z,1.30
2023-04-13T14:50:17.248Z,1.10
2023-04-13T14:52:45.665Z,1.30
2023-04-13T14:55:13.800Z,1.00
2023-04-13T14:57:41.596Z,1.00
2023-04-13T15:00:16.991Z,1.20
2023-04-13T15:02:44.453Z,0.83
2023-04-13T15:05:12.294Z,1.00
2023-04-13T15:07:40.732Z,1.20
2023-04-13T15:10:08.372Z,1.20
2023-04-13T15:12:36.225Z,0.90
2023-04-13T15:15:03.682Z,1.53
2023-04-13T15:17:31.444Z,1.20
2023-04-13T15:19:58.819Z,1.07
2023-04-13T15:22:26.126Z,1.30
2023-04-13T15:24:53.488Z,2.40
2023-04-13T15:27:20.900Z,1.10
2023-04-13T15:29:48.212Z,0.83
2023-04-13T15:32:15.623Z,1.20
2023-04-13T15:34:43.007Z,1.10
2023-04-13T15:37:10.477Z,1.30
2023-04-13T15:39:37.755Z,1.30
2023-04-13T15:42:05.138Z,1.30
2023-04-13T15:44:32.471Z,1.43
2023-04-13T15:47:01.073Z,1.80
2023-04-13T15:49:28.745Z,1.73
2023-04-13T15:51:56.051Z,1.80
2023-04-13T15:54:23.448Z,1.80
2023-04-13T15:56:51.473Z,1.33
2023-04-13T15:59:18.821Z,1.40
2023-04-13T16:01:47.761Z,1.63
2023-04-13T16:04:15.386Z,1.63
2023-04-13T16:06:43.025Z,1.50
2023-04-13T16:09:10.551Z,1.20
2023-04-13T16:11:39.500Z,1.57
2023-04-13T16:14:10.023Z,1.37
2023-04-13T16:16:50.912Z,1.60
2023-04-13T16:19:18.210Z,1.67
2023-04-13T16:21:46.045Z,1.80
2023-04-13T16:24:13.489Z,1.87
2023-04-13T16:26:40.924Z,1.50
2023-04-13T16:29:08.236Z,1.70
2023-04-13T16:31:35.631Z,1.70
2023-04-13T16:34:11.752Z,1.60
2023-04-13T16:36:32.466Z,1.20
2023-04-13T16:39:10.947Z,1.67
2023-04-13T16:41:39.079Z,1.53
2023-04-13T16:44:06.512Z,1.70
2023-04-13T16:46:33.815Z,1.73
2023-04-13T16:49:01.409Z,1.30
2023-04-13T16:51:31.069Z,4.07
2023-04-13T16:53:58.610Z,5.67
2023-04-13T16:56:31.641Z,4.10
2023-04-13T16:58:59.379Z,2.70
2023-04-13T17:01:27.875Z,3.07
2023-04-13T17:03:55.563Z,2.10
2023-04-13T17:06:23.006Z,9.20
2023-04-13T17:08:50.600Z,4.70
2023-04-13T17:11:17.904Z,2.27
2023-04-13T17:13:46.161Z,2.10
2023-04-13T17:16:13.559Z,5.63
2023-04-13T17:18:40.931Z,2.47
2023-04-13T17:21:08.296Z,1.50
2023-04-13T17:23:35.774Z,1.70
2023-04-13T17:26:03.688Z,1.60
2023-04-13T17:28:31.084Z,1.63
2023-04-13T17:30:58.455Z,1.93
2023-04-13T17:33:27.460Z,1.60
2023-04-13T17:35:55.315Z,1.80
2023-04-13T17:38:22.709Z,1.70
2023-04-13T17:40:50.836Z,1.63
2023-04-13T17:43:18.220Z,1.50
2023-04-13T17:45:45.610Z,1.70
2023-04-13T17:48:12.933Z,1.50
2023-04-13T17:50:40.359Z,1.77
2023-04-13T17:53:07.665Z,2.10
2023-04-13T17:55:36.562Z,2.00
2023-04-13T17:58:04.305Z,1.70
2023-04-13T18:00:31.677Z,2.10
2023-04-13T18:02:59.133Z,1.80
2023-04-13T18:05:27.477Z,2.03
2023-04-13T18:07:54.813Z,2.30
2023-04-13T18:10:22.160Z,2.30
2023-04-13T18:12:49.614Z,1.90
2023-04-13T18:15:16.963Z,2.23
2023-04-13T18:17:44.356Z,1.80
2023-04-13T18:20:11.898Z,2.20
2023-04-13T18:22:39.276Z,1.80
2023-04-13T18:25:06.764Z,1.97
2023-04-13T18:27:34.518Z,1.60
2023-04-13T18:30:01.984Z,1.97
2023-04-13T18:32:29.426Z,1.77
2023-04-13T18:34:57.581Z,1.63
2023-04-13T18:37:24.884Z,1.53
2023-04-13T18:39:53.756Z,1.63
2023-04-13T18:42:21.387Z,1.80
2023-04-13T18:44:48.679Z,1.70
2023-04-13T18:47:16.506Z,1.30
2023-04-13T18:49:45.005Z,2.00
2023-04-13T18:52:12.327Z,1.87
2023-04-13T18:54:40.760Z,1.63
2023-04-13T18:57:08.136Z,2.40
2023-04-13T18:59:35.784Z,2.10
2023-04-13T19:02:03.235Z,1.60
2023-04-13T19:04:30.821Z,1.50
2023-04-13T19:06:58.574Z,2.13
2023-04-13T19:09:25.929Z,1.50
2023-04-13T19:11:55.103Z,1.43
2023-04-13T19:14:22.551Z,2.40
2023-04-13T19:16:51.639Z,2.10
2023-04-13T19:19:19.022Z,2.00
2023-04-13T19:21:46.387Z,2.27
2023-04-13T19:24:13.762Z,2.20
2023-04-13T19:26:41.408Z,1.93
2023-04-13T19:29:12.805Z,1.70
2023-04-13T19:31:42.418Z,1.60
2023-04-13T19:34:10.135Z,5.50
2023-04-13T19:36:37.959Z,8.10
2023-04-13T19:39:06.764Z,8.00
2023-04-13T19:41:35.041Z,10.37
2023-04-13T19:44:02.983Z,8.57
2023-04-13T19:46:32.094Z,6.87
2023-04-13T19:49:02.662Z,3.00
2023-04-13T19:51:33.219Z,2.93
2023-04-13T19:54:02.609Z,2.70
2023-04-13T19:56:30.566Z,2.77
2023-04-13T19:58:58.606Z,3.10
2023-04-13T20:01:25.943Z,3.23
2023-04-13T20:03:53.370Z,3.17
2023-04-13T20:06:20.764Z,3.70
2023-04-13T20:08:48.322Z,3.27
2023-04-13T20:11:15.682Z,2.73
2023-04-13T20:13:43.050Z,2.80
2023-04-13T20:16:11.386Z,2.43
2023-04-13T20:18:38.869Z,2.60
2023-04-13T20:21:08.075Z,2.60
2023-04-13T20:23:36.088Z,2.37
2023-04-13T20:26:04.461Z,2.13
2023-04-13T20:28:33.056Z,2.33
2023-04-13T20:31:00.521Z,2.80
2023-04-13T20:33:27.862Z,2.47
2023-04-13T20:35:55.387Z,2.10
2023-04-13T20:38:22.784Z,1.97
2023-04-13T20:40:50.165Z,1.93
2023-04-13T20:43:19.158Z,2.40
2023-04-13T20:45:46.604Z,2.30
2023-04-13T20:50:47.588Z,2.37
2023-04-13T20:53:16.393Z,2.60
2023-04-13T20:55:44.036Z,2.60
2023-04-13T20:58:11.407Z,2.90
2023-04-13T21:00:38.769Z,2.60
2023-04-13T21:03:07.867Z,2.80
2023-04-13T21:05:35.561Z,3.10
2023-04-13T21:08:02.969Z,3.40
2023-04-13T21:10:30.327Z,3.03
2023-04-13T21:12:57.717Z,3.40
2023-04-13T21:15:25.338Z,2.80
2023-04-13T21:17:52.748Z,3.30
2023-04-13T21:20:20.151Z,3.93
2023-04-13T21:22:47.508Z,3.03
2023-04-13T21:25:14.874Z,2.73
2023-04-13T21:27:42.298Z,2.90
2023-04-13T21:30:09.891Z,2.80
2023-04-13T21:32:37.277Z,3.20
2023-04-13T21:35:04.745Z,3.77
2023-04-13T21:37:32.068Z,2.60
2023-04-13T21:40:00.208Z,2.70
2023-04-13T21:42:28.045Z,2.07
2023-04-13T21:44:57.019Z,2.37
2023-04-13T21:47:24.965Z,1.83
2023-04-13T21:49:52.420Z,1.93
2023-04-13T21:52:19.892Z,2.40
2023-04-13T21:54:47.743Z,2.13
2023-04-13T21:57:16.137Z,2.27
2023-04-13T21:59:43.505Z,2.13
2023-04-13T22:02:11.066Z,2.40
2023-04-13T22:04:38.688Z,1.80
2023-04-13T22:07:06.266Z,2.07
2023-04-13T22:09:33.704Z,2.00
2023-04-13T22:12:01.089Z,2.00
2023-04-13T22:14:28.462Z,1.70
2023-04-13T22:16:55.826Z,2.67
2023-04-13T22:19:23.195Z,2.50
2023-04-13T22:21:51.244Z,2.80
2023-04-13T22:24:18.721Z,1.93
2023-04-13T22:26:46.583Z,1.50
2023-04-13T22:29:13.945Z,2.10
2023-04-13T22:31:41.541Z,2.33
2023-04-13T22:34:08.912Z,1.80
2023-04-13T22:36:36.285Z,2.20
2023-04-13T22:39:03.753Z,2.37
2023-04-13T22:41:31.130Z,2.17
2023-04-13T22:43:58.477Z,1.93
2023-04-13T22:46:26.141Z,2.47
2023-04-13T22:48:53.480Z,2.00
2023-04-13T22:51:20.849Z,2.90
2023-04-13T22:53:51.325Z,2.20
2023-04-13T22:56:18.698Z,2.00
2023-04-13T22:58:46.062Z,2.43
2023-04-13T23:01:13.412Z,1.80
2023-04-13T23:03:41.054Z,2.00
2023-04-13T23:06:08.629Z,2.20
2023-04-13T23:08:35.923Z,2.10
2023-04-13T23:11:09.535Z,2.60
2023-04-13T23:13:36.958Z,2.47
2023-04-13T23:16:05.571Z,2.90
2023-04-13T23:18:32.931Z,2.50
2023-04-13T23:21:00.353Z,2.30
2023-04-13T23:23:27.659Z,2.43
2023-04-13T23:25:55.016Z,2.37
2023-04-13T23:28:22.318Z,2.53
2023-04-13T23:30:49.724Z,1.90
2023-04-13T23:33:17.028Z,2.80
2023-04-13T23:35:45.919Z,2.63
2023-04-13T23:38:13.228Z,2.63
2023-04-13T23:40:40.666Z,2.67
2023-04-13T23:43:08.025Z,2.63
2023-04-13T23:45:35.320Z,2.50
2023-04-13T23:48:03.763Z,3.47
2023-04-13T23:50:31.117Z,2.30
2023-04-13T23:52:59.505Z,2.60
2023-04-13T23:55:28.050Z,2.33
2023-04-13T23:57:55.569Z,2.40
